sensor_id;sensor_type;location;lat;lon;timestamp;P1;durP1;ratioP1;P2;durP2;ratioP2
72053;SDS011;59918;51.280;7.950;2023-08-06T00:01:38;3.38;;;2.78;;
72053;SDS011;59918;51.280;7.950;2023-08-06T00:04:03;3.42;;;3.17;;
72053;SDS011;59918;51.280;7.950;2023-08-06T00:06:29;3.67;;;3.15;;
72053;SDS011;59918;51.280;7.950;2023-08-06T00:08:54;3.58;;;3.13;;
72053;SDS011;59918;51.280;7.950;2023-08-06T00:11:19;3.28;;;3.08;;
72053;SDS011;59918;51.280;7.950;2023-08-06T00:13:44;6.45;;;3.17;;
72053;SDS011;59918;51.280;7.950;2023-08-06T00:16:10;3.40;;;3.10;;
72053;SDS011;59918;51.280;7.950;2023-08-06T00:18:36;5.28;;;3.40;;
72053;SDS011;59918;51.280;7.950;2023-08-06T00:21:02;3.90;;;3.45;;
72053;SDS011;59918;51.280;7.950;2023-08-06T00:23:27;3.60;;;3.30;;
72053;SDS011;59918;51.280;7.950;2023-08-06T00:25:52;9.18;;;3.38;;
72053;SDS011;59918;51.280;7.950;2023-08-06T00:28:17;3.92;;;3.58;;
72053;SDS011;59918;51.280;7.950;2023-08-06T00:30:43;3.97;;;3.60;;
72053;SDS011;59918;51.280;7.950;2023-08-06T00:33:08;4.38;;;3.28;;
72053;SDS011;59918;51.280;7.950;2023-08-06T00:35:33;4.07;;;3.42;;
72053;SDS011;59918;51.280;7.950;2023-08-06T00:37:58;3.75;;;3.40;;
72053;SDS011;59918;51.280;7.950;2023-08-06T00:40:23;5.63;;;3.97;;
72053;SDS011;59918;51.280;7.950;2023-08-06T00:42:49;4.70;;;3.05;;
72053;SDS011;59918;51.280;7.950;2023-08-06T00:45:14;3.75;;;3.45;;
72053;SDS011;59918;51.280;7.950;2023-08-06T00:47:39;6.22;;;3.45;;
72053;SDS011;59918;51.280;7.950;2023-08-06T00:50:06;3.78;;;3.47;;
72053;SDS011;59918;51.280;7.950;2023-08-06T00:52:32;4.05;;;3.58;;
72053;SDS011;59918;51.280;7.950;2023-08-06T00:54:58;6.78;;;3.95;;
72053;SDS011;59918;51.280;7.950;2023-08-06T00:57:24;3.60;;;3.30;;
72053;SDS011;59918;51.280;7.950;2023-08-06T00:59:49;7.13;;;3.70;;
72053;SDS011;59918;51.280;7.950;2023-08-06T01:02:15;4.22;;;3.92;;
72053;SDS011;59918;51.280;7.950;2023-08-06T01:04:40;5.07;;;3.45;;
72053;SDS011;59918;51.280;7.950;2023-08-06T01:09:50;5.28;;;3.78;;
72053;SDS011;59918;51.280;7.950;2023-08-06T01:12:29;4.15;;;3.63;;
72053;SDS011;59918;51.280;7.950;2023-08-06T01:15:21;6.07;;;3.72;;
72053;SDS011;59918;51.280;7.950;2023-08-06T01:17:49;4.95;;;3.75;;
72053;SDS011;59918;51.280;7.950;2023-08-06T01:20:15;3.70;;;3.40;;
72053;SDS011;59918;51.280;7.950;2023-08-06T01:22:40;5.93;;;3.78;;
72053;SDS011;59918;51.280;7.950;2023-08-06T01:25:05;3.65;;;3.35;;
72053;SDS011;59918;51.280;7.950;2023-08-06T01:30:06;5.60;;;3.70;;
72053;SDS011;59918;51.280;7.950;2023-08-06T01:32:34;4.82;;;3.28;;
72053;SDS011;59918;51.280;7.950;2023-08-06T01:35:02;4.40;;;3.88;;
72053;SDS011;59918;51.280;7.950;2023-08-06T01:37:28;4.00;;;3.70;;
72053;SDS011;59918;51.280;7.950;2023-08-06T01:39:54;5.70;;;3.53;;
72053;SDS011;59918;51.280;7.950;2023-08-06T01:42:20;5.80;;;3.33;;
72053;SDS011;59918;51.280;7.950;2023-08-06T01:44:45;3.67;;;3.33;;
72053;SDS011;59918;51.280;7.950;2023-08-06T01:47:10;3.72;;;3.42;;
72053;SDS011;59918;51.280;7.950;2023-08-06T01:49:35;5.53;;;3.80;;
72053;SDS011;59918;51.280;7.950;2023-08-06T01:52:01;3.45;;;3.15;;
72053;SDS011;59918;51.280;7.950;2023-08-06T01:54:26;4.05;;;3.60;;
72053;SDS011;59918;51.280;7.950;2023-08-06T01:56:51;4.10;;;3.70;;
72053;SDS011;59918;51.280;7.950;2023-08-06T01:59:16;4.25;;;3.88;;
72053;SDS011;59918;51.280;7.950;2023-08-06T02:01:42;4.43;;;3.50;;
72053;SDS011;59918;51.280;7.950;2023-08-06T02:04:07;4.32;;;3.88;;
72053;SDS011;59918;51.280;7.950;2023-08-06T02:06:32;3.38;;;3.17;;
72053;SDS011;59918;51.280;7.950;2023-08-06T02:08:57;4.45;;;3.55;;
72053;SDS011;59918;51.280;7.950;2023-08-06T02:11:23;4.95;;;3.47;;
72053;SDS011;59918;51.280;7.950;2023-08-06T02:13:48;6.95;;;3.78;;
72053;SDS011;59918;51.280;7.950;2023-08-06T02:16:13;3.55;;;3.35;;
72053;SDS011;59918;51.280;7.950;2023-08-06T02:18:38;4.63;;;4.22;;
72053;SDS011;59918;51.280;7.950;2023-08-06T02:21:03;6.35;;;4.18;;
72053;SDS011;59918;51.280;7.950;2023-08-06T02:23:29;4.45;;;3.75;;
72053;SDS011;59918;51.280;7.950;2023-08-06T02:25:58;4.20;;;3.90;;
72053;SDS011;59918;51.280;7.950;2023-08-06T02:28:24;4.47;;;4.18;;
72053;SDS011;59918;51.280;7.950;2023-08-06T02:30:50;4.50;;;3.92;;
72053;SDS011;59918;51.280;7.950;2023-08-06T02:33:16;5.18;;;3.95;;
72053;SDS011;59918;51.280;7.950;2023-08-06T02:35:41;4.43;;;4.03;;
72053;SDS011;59918;51.280;7.950;2023-08-06T02:38:06;7.78;;;3.85;;
72053;SDS011;59918;51.280;7.950;2023-08-06T02:40:31;4.63;;;4.22;;
72053;SDS011;59918;51.280;7.950;2023-08-06T02:42:57;4.40;;;4.00;;
72053;SDS011;59918;51.280;7.950;2023-08-06T02:45:22;4.72;;;3.67;;
72053;SDS011;59918;51.280;7.950;2023-08-06T02:47:47;6.60;;;4.80;;
72053;SDS011;59918;51.280;7.950;2023-08-06T02:50:12;4.03;;;3.72;;
72053;SDS011;59918;51.280;7.950;2023-08-06T02:52:37;4.28;;;3.88;;
72053;SDS011;59918;51.280;7.950;2023-08-06T02:55:03;4.32;;;3.92;;
72053;SDS011;59918;51.280;7.950;2023-08-06T02:57:28;6.10;;;4.25;;
72053;SDS011;59918;51.280;7.950;2023-08-06T02:59:54;4.53;;;4.10;;
72053;SDS011;59918;51.280;7.950;2023-08-06T03:02:19;3.67;;;3.38;;
72053;SDS011;59918;51.280;7.950;2023-08-06T03:04:44;4.25;;;3.83;;
72053;SDS011;59918;51.280;7.950;2023-08-06T03:07:09;7.35;;;3.83;;
72053;SDS011;59918;51.280;7.950;2023-08-06T03:09:34;4.45;;;4.13;;
72053;SDS011;59918;51.280;7.950;2023-08-06T03:12:00;4.00;;;3.55;;
72053;SDS011;59918;51.280;7.950;2023-08-06T03:14:25;3.63;;;3.22;;
72053;SDS011;59918;51.280;7.950;2023-08-06T03:16:50;4.38;;;3.78;;
72053;SDS011;59918;51.280;7.950;2023-08-06T03:19:15;5.32;;;3.67;;
72053;SDS011;59918;51.280;7.950;2023-08-06T03:21:41;4.05;;;3.60;;
72053;SDS011;59918;51.280;7.950;2023-08-06T03:24:08;5.22;;;3.70;;
72053;SDS011;59918;51.280;7.950;2023-08-06T03:26:33;4.78;;;4.15;;
72053;SDS011;59918;51.280;7.950;2023-08-06T03:28:59;3.60;;;3.30;;
72053;SDS011;59918;51.280;7.950;2023-08-06T03:31:24;3.95;;;3.70;;
72053;SDS011;59918;51.280;7.950;2023-08-06T03:33:49;4.57;;;3.63;;
72053;SDS011;59918;51.280;7.950;2023-08-06T03:36:14;4.03;;;3.67;;
72053;SDS011;59918;51.280;7.950;2023-08-06T03:38:40;4.35;;;3.95;;
72053;SDS011;59918;51.280;7.950;2023-08-06T03:41:05;4.97;;;4.57;;
72053;SDS011;59918;51.280;7.950;2023-08-06T03:43:30;5.38;;;3.60;;
72053;SDS011;59918;51.280;7.950;2023-08-06T03:45:55;6.00;;;3.47;;
72053;SDS011;59918;51.280;7.950;2023-08-06T03:48:21;4.35;;;3.95;;
72053;SDS011;59918;51.280;7.950;2023-08-06T03:50:46;4.78;;;3.40;;
72053;SDS011;59918;51.280;7.950;2023-08-06T03:53:11;5.05;;;3.72;;
72053;SDS011;59918;51.280;7.950;2023-08-06T03:55:36;5.25;;;3.40;;
72053;SDS011;59918;51.280;7.950;2023-08-06T03:58:02;5.53;;;3.60;;
72053;SDS011;59918;51.280;7.950;2023-08-06T04:00:27;4.13;;;3.67;;
72053;SDS011;59918;51.280;7.950;2023-08-06T04:02:52;4.25;;;3.63;;
72053;SDS011;59918;51.280;7.950;2023-08-06T04:05:17;4.38;;;3.85;;
72053;SDS011;59918;51.280;7.950;2023-08-06T04:07:42;6.85;;;4.13;;
72053;SDS011;59918;51.280;7.950;2023-08-06T04:10:08;6.28;;;3.92;;
72053;SDS011;59918;51.280;7.950;2023-08-06T04:12:33;4.05;;;3.75;;
72053;SDS011;59918;51.280;7.950;2023-08-06T04:14:59;5.68;;;4.10;;
72053;SDS011;59918;51.280;7.950;2023-08-06T04:17:25;4.78;;;3.90;;
72053;SDS011;59918;51.280;7.950;2023-08-06T04:19:51;6.38;;;3.80;;
72053;SDS011;59918;51.280;7.950;2023-08-06T04:22:18;4.63;;;4.15;;
72053;SDS011;59918;51.280;7.950;2023-08-06T04:24:44;4.50;;;4.13;;
72053;SDS011;59918;51.280;7.950;2023-08-06T04:27:10;6.47;;;4.75;;
72053;SDS011;59918;51.280;7.950;2023-08-06T04:29:36;5.45;;;4.47;;
72053;SDS011;59918;51.280;7.950;2023-08-06T04:32:03;6.78;;;4.30;;
72053;SDS011;59918;51.280;7.950;2023-08-06T04:34:30;5.40;;;4.25;;
72053;SDS011;59918;51.280;7.950;2023-08-06T04:36:55;4.47;;;4.07;;
72053;SDS011;59918;51.280;7.950;2023-08-06T04:39:20;4.03;;;3.67;;
72053;SDS011;59918;51.280;7.950;2023-08-06T04:41:46;4.65;;;4.20;;
72053;SDS011;59918;51.280;7.950;2023-08-06T04:44:11;4.68;;;4.00;;
72053;SDS011;59918;51.280;7.950;2023-08-06T04:46:36;4.25;;;3.70;;
72053;SDS011;59918;51.280;7.950;2023-08-06T04:49:01;4.53;;;4.13;;
72053;SDS011;59918;51.280;7.950;2023-08-06T04:51:26;5.65;;;3.83;;
72053;SDS011;59918;51.280;7.950;2023-08-06T04:53:52;8.85;;;3.67;;
72053;SDS011;59918;51.280;7.950;2023-08-06T04:56:17;5.30;;;4.80;;
72053;SDS011;59918;51.280;7.950;2023-08-06T04:58:42;5.25;;;3.88;;
72053;SDS011;59918;51.280;7.950;2023-08-06T05:01:08;4.00;;;3.70;;
72053;SDS011;59918;51.280;7.950;2023-08-06T05:03:33;4.40;;;4.00;;
72053;SDS011;59918;51.280;7.950;2023-08-06T05:05:58;4.40;;;4.00;;
72053;SDS011;59918;51.280;7.950;2023-08-06T05:08:23;4.05;;;3.70;;
72053;SDS011;59918;51.280;7.950;2023-08-06T05:10:48;5.90;;;3.53;;
72053;SDS011;59918;51.280;7.950;2023-08-06T05:13:14;4.90;;;3.65;;
72053;SDS011;59918;51.280;7.950;2023-08-06T05:15:39;6.53;;;3.13;;
72053;SDS011;59918;51.280;7.950;2023-08-06T05:18:05;5.05;;;3.65;;
72053;SDS011;59918;51.280;7.950;2023-08-06T05:20:30;4.25;;;3.63;;
72053;SDS011;59918;51.280;7.950;2023-08-06T05:22:55;5.53;;;3.95;;
72053;SDS011;59918;51.280;7.950;2023-08-06T05:25:20;4.45;;;4.07;;
72053;SDS011;59918;51.280;7.950;2023-08-06T05:27:46;4.10;;;3.70;;
72053;SDS011;59918;51.280;7.950;2023-08-06T05:30:11;4.03;;;3.72;;
72053;SDS011;59918;51.280;7.950;2023-08-06T05:32:36;5.72;;;3.70;;
72053;SDS011;59918;51.280;7.950;2023-08-06T05:35:02;4.95;;;3.25;;
72053;SDS011;59918;51.280;7.950;2023-08-06T05:37:27;7.50;;;3.95;;
72053;SDS011;59918;51.280;7.950;2023-08-06T05:39:52;4.43;;;4.03;;
72053;SDS011;59918;51.280;7.950;2023-08-06T05:42:18;9.20;;;3.60;;
72053;SDS011;59918;51.280;7.950;2023-08-06T05:44:45;4.80;;;4.00;;
72053;SDS011;59918;51.280;7.950;2023-08-06T05:47:10;4.15;;;3.70;;
72053;SDS011;59918;51.280;7.950;2023-08-06T05:49:36;5.15;;;3.70;;
72053;SDS011;59918;51.280;7.950;2023-08-06T05:52:01;4.55;;;4.20;;
72053;SDS011;59918;51.280;7.950;2023-08-06T05:54:26;4.65;;;4.00;;
72053;SDS011;59918;51.280;7.950;2023-08-06T05:56:51;5.53;;;3.53;;
72053;SDS011;59918;51.280;7.950;2023-08-06T05:59:17;6.50;;;3.33;;
72053;SDS011;59918;51.280;7.950;2023-08-06T06:01:42;7.85;;;3.42;;
72053;SDS011;59918;51.280;7.950;2023-08-06T06:04:07;7.47;;;3.13;;
72053;SDS011;59918;51.280;7.950;2023-08-06T06:06:32;3.83;;;3.00;;
72053;SDS011;59918;51.280;7.950;2023-08-06T06:08:58;5.10;;;3.05;;
72053;SDS011;59918;51.280;7.950;2023-08-06T06:11:23;5.75;;;3.47;;
72053;SDS011;59918;51.280;7.950;2023-08-06T06:13:51;4.75;;;3.00;;
72053;SDS011;59918;51.280;7.950;2023-08-06T06:16:17;2.42;;;2.25;;
72053;SDS011;59918;51.280;7.950;2023-08-06T06:18:42;7.03;;;2.95;;
72053;SDS011;59918;51.280;7.950;2023-08-06T06:21:10;3.10;;;2.70;;
72053;SDS011;59918;51.280;7.950;2023-08-06T06:23:35;4.93;;;2.70;;
72053;SDS011;59918;51.280;7.950;2023-08-06T06:26:01;3.88;;;2.35;;
72053;SDS011;59918;51.280;7.950;2023-08-06T06:28:26;4.43;;;2.15;;
72053;SDS011;59918;51.280;7.950;2023-08-06T06:30:51;2.85;;;2.10;;
72053;SDS011;59918;51.280;7.950;2023-08-06T06:33:17;5.03;;;2.08;;
72053;SDS011;59918;51.280;7.950;2023-08-06T06:35:42;2.63;;;2.10;;
72053;SDS011;59918;51.280;7.950;2023-08-06T06:38:07;1.77;;;1.58;;
72053;SDS011;59918;51.280;7.950;2023-08-06T06:40:32;3.22;;;1.85;;
72053;SDS011;59918;51.280;7.950;2023-08-06T06:42:58;5.65;;;2.35;;
72053;SDS011;59918;51.280;7.950;2023-08-06T06:45:23;4.43;;;2.10;;
72053;SDS011;59918;51.280;7.950;2023-08-06T06:47:48;5.03;;;1.95;;
72053;SDS011;59918;51.280;7.950;2023-08-06T06:50:13;3.55;;;1.88;;
72053;SDS011;59918;51.280;7.950;2023-08-06T06:52:39;3.42;;;1.98;;
72053;SDS011;59918;51.280;7.950;2023-08-06T06:55:04;5.95;;;1.73;;
72053;SDS011;59918;51.280;7.950;2023-08-06T06:57:29;5.80;;;1.73;;
72053;SDS011;59918;51.280;7.950;2023-08-06T06:59:55;4.10;;;1.83;;
72053;SDS011;59918;51.280;7.950;2023-08-06T07:02:20;5.03;;;2.22;;
72053;SDS011;59918;51.280;7.950;2023-08-06T07:04:45;4.75;;;1.70;;
72053;SDS011;59918;51.280;7.950;2023-08-06T07:07:10;4.47;;;1.70;;
72053;SDS011;59918;51.280;7.950;2023-08-06T07:09:36;3.50;;;1.98;;
72053;SDS011;59918;51.280;7.950;2023-08-06T07:12:01;2.50;;;1.83;;
72053;SDS011;59918;51.280;7.950;2023-08-06T07:14:27;2.53;;;1.63;;
72053;SDS011;59918;51.280;7.950;2023-08-06T07:16:53;1.95;;;1.40;;
72053;SDS011;59918;51.280;7.950;2023-08-06T07:19:18;3.58;;;1.45;;
72053;SDS011;59918;51.280;7.950;2023-08-06T07:21:44;1.70;;;1.50;;
72053;SDS011;59918;51.280;7.950;2023-08-06T07:24:09;5.63;;;1.52;;
72053;SDS011;59918;51.280;7.950;2023-08-06T07:26:34;2.65;;;1.73;;
72053;SDS011;59918;51.280;7.950;2023-08-06T07:28:59;3.22;;;1.40;;
72053;SDS011;59918;51.280;7.950;2023-08-06T07:31:25;3.67;;;1.58;;
72053;SDS011;59918;51.280;7.950;2023-08-06T07:33:50;3.78;;;1.48;;
72053;SDS011;59918;51.280;7.950;2023-08-06T07:36:15;2.78;;;1.20;;
72053;SDS011;59918;51.280;7.950;2023-08-06T07:38:40;1.27;;;1.17;;
72053;SDS011;59918;51.280;7.950;2023-08-06T07:41:06;4.38;;;1.70;;
72053;SDS011;59918;51.280;7.950;2023-08-06T07:43:31;2.20;;;1.33;;
72053;SDS011;59918;51.280;7.950;2023-08-06T07:45:59;3.35;;;1.33;;
72053;SDS011;59918;51.280;7.950;2023-08-06T07:48:25;2.67;;;1.35;;
72053;SDS011;59918;51.280;7.950;2023-08-06T07:50:51;1.73;;;1.63;;
72053;SDS011;59918;51.280;7.950;2023-08-06T07:53:17;3.15;;;1.63;;
72053;SDS011;59918;51.280;7.950;2023-08-06T07:55:43;2.42;;;1.52;;
72053;SDS011;59918;51.280;7.950;2023-08-06T07:58:08;5.25;;;1.63;;
72053;SDS011;59918;51.280;7.950;2023-08-06T08:00:33;4.57;;;1.98;;
72053;SDS011;59918;51.280;7.950;2023-08-06T08:03:01;8.18;;;1.83;;
72053;SDS011;59918;51.280;7.950;2023-08-06T08:05:26;3.97;;;2.03;;
72053;SDS011;59918;51.280;7.950;2023-08-06T08:07:51;3.92;;;1.77;;
72053;SDS011;59918;51.280;7.950;2023-08-06T08:10:19;2.80;;;2.10;;
72053;SDS011;59918;51.280;7.950;2023-08-06T08:12:44;5.80;;;2.33;;
72053;SDS011;59918;51.280;7.950;2023-08-06T08:15:09;6.22;;;1.65;;
72053;SDS011;59918;51.280;7.950;2023-08-06T08:17:34;3.85;;;1.50;;
72053;SDS011;59918;51.280;7.950;2023-08-06T08:20:00;1.67;;;1.35;;
72053;SDS011;59918;51.280;7.950;2023-08-06T08:22:25;1.83;;;1.25;;
72053;SDS011;59918;51.280;7.950;2023-08-06T08:24:50;4.88;;;1.02;;
72053;SDS011;59918;51.280;7.950;2023-08-06T08:27:15;1.83;;;1.20;;
72053;SDS011;59918;51.280;7.950;2023-08-06T08:29:41;1.52;;;1.20;;
72053;SDS011;59918;51.280;7.950;2023-08-06T08:32:08;2.53;;;1.25;;
72053;SDS011;59918;51.280;7.950;2023-08-06T08:34:34;2.28;;;1.23;;
72053;SDS011;59918;51.280;7.950;2023-08-06T08:36:59;2.08;;;1.00;;
72053;SDS011;59918;51.280;7.950;2023-08-06T08:39:24;2.22;;;1.45;;
72053;SDS011;59918;51.280;7.950;2023-08-06T08:41:49;2.30;;;1.52;;
72053;SDS011;59918;51.280;7.950;2023-08-06T08:44:15;1.33;;;1.20;;
72053;SDS011;59918;51.280;7.950;2023-08-06T08:46:41;4.90;;;1.27;;
72053;SDS011;59918;51.280;7.950;2023-08-06T08:49:08;3.05;;;1.45;;
72053;SDS011;59918;51.280;7.950;2023-08-06T08:51:33;1.13;;;1.02;;
72053;SDS011;59918;51.280;7.950;2023-08-06T08:53:59;2.35;;;1.00;;
72053;SDS011;59918;51.280;7.950;2023-08-06T08:56:28;2.45;;;1.10;;
72053;SDS011;59918;51.280;7.950;2023-08-06T08:58:53;1.25;;;1.15;;
72053;SDS011;59918;51.280;7.950;2023-08-06T09:01:18;1.60;;;1.50;;
72053;SDS011;59918;51.280;7.950;2023-08-06T09:03:45;1.13;;;0.90;;
72053;SDS011;59918;51.280;7.950;2023-08-06T09:06:11;0.70;;;0.70;;
72053;SDS011;59918;51.280;7.950;2023-08-06T09:08:47;0.80;;;0.80;;
72053;SDS011;59918;51.280;7.950;2023-08-06T09:11:21;0.77;;;0.77;;
72053;SDS011;59918;51.280;7.950;2023-08-06T09:13:47;0.65;;;0.63;;
72053;SDS011;59918;51.280;7.950;2023-08-06T09:16:12;0.70;;;0.68;;
72053;SDS011;59918;51.280;7.950;2023-08-06T09:18:38;1.52;;;0.70;;
72053;SDS011;59918;51.280;7.950;2023-08-06T09:21:04;0.73;;;0.73;;
72053;SDS011;59918;51.280;7.950;2023-08-06T09:23:29;0.73;;;0.73;;
72053;SDS011;59918;51.280;7.950;2023-08-06T09:25:56;0.40;;;0.40;;
72053;SDS011;59918;51.280;7.950;2023-08-06T09:28:22;0.50;;;0.50;;
72053;SDS011;59918;51.280;7.950;2023-08-06T09:30:47;0.50;;;0.50;;
72053;SDS011;59918;51.280;7.950;2023-08-06T09:33:14;2.03;;;0.55;;
72053;SDS011;59918;51.280;7.950;2023-08-06T09:35:43;1.35;;;0.88;;
72053;SDS011;59918;51.280;7.950;2023-08-06T09:38:09;1.77;;;1.17;;
72053;SDS011;59918;51.280;7.950;2023-08-06T09:40:35;1.33;;;1.23;;
72053;SDS011;59918;51.280;7.950;2023-08-06T09:43:00;2.78;;;1.27;;
72053;SDS011;59918;51.280;7.950;2023-08-06T09:45:28;0.80;;;0.80;;
72053;SDS011;59918;51.280;7.950;2023-08-06T09:47:56;1.05;;;1.05;;
72053;SDS011;59918;51.280;7.950;2023-08-06T09:50:21;1.92;;;0.80;;
72053;SDS011;59918;51.280;7.950;2023-08-06T09:52:47;0.50;;;0.50;;
72053;SDS011;59918;51.280;7.950;2023-08-06T09:55:12;0.90;;;0.90;;
72053;SDS011;59918;51.280;7.950;2023-08-06T09:57:39;0.77;;;0.70;;
72053;SDS011;59918;51.280;7.950;2023-08-06T10:00:05;1.13;;;0.75;;
72053;SDS011;59918;51.280;7.950;2023-08-06T10:02:32;0.40;;;0.40;;
72053;SDS011;59918;51.280;7.950;2023-08-06T10:04:58;0.40;;;0.40;;
72053;SDS011;59918;51.280;7.950;2023-08-06T10:07:24;0.77;;;0.45;;
72053;SDS011;59918;51.280;7.950;2023-08-06T10:09:49;0.30;;;0.30;;
72053;SDS011;59918;51.280;7.950;2023-08-06T10:12:15;0.30;;;0.30;;
72053;SDS011;59918;51.280;7.950;2023-08-06T10:14:41;0.30;;;0.30;;
72053;SDS011;59918;51.280;7.950;2023-08-06T10:17:07;0.10;;;0.10;;
72053;SDS011;59918;51.280;7.950;2023-08-06T10:19:33;0.43;;;0.30;;
72053;SDS011;59918;51.280;7.950;2023-08-06T10:22:14;0.22;;;0.22;;
72053;SDS011;59918;51.280;7.950;2023-08-06T10:24:51;0.40;;;0.40;;
72053;SDS011;59918;51.280;7.950;2023-08-06T10:32:51;0.20;;;0.20;;
72053;SDS011;59918;51.280;7.950;2023-08-06T10:37:57;0.22;;;0.20;;
72053;SDS011;59918;51.280;7.950;2023-08-06T10:40:23;0.20;;;0.20;;
72053;SDS011;59918;51.280;7.950;2023-08-06T10:42:48;0.20;;;0.20;;
72053;SDS011;59918;51.280;7.950;2023-08-06T10:45:14;0.25;;;0.20;;
72053;SDS011;59918;51.280;7.950;2023-08-06T10:47:40;0.30;;;0.20;;
72053;SDS011;59918;51.280;7.950;2023-08-06T10:50:07;1.65;;;0.10;;
72053;SDS011;59918;51.280;7.950;2023-08-06T10:52:33;0.20;;;0.20;;
72053;SDS011;59918;51.280;7.950;2023-08-06T10:54:59;0.43;;;0.20;;
72053;SDS011;59918;51.280;7.950;2023-08-06T10:57:24;0.20;;;0.20;;
72053;SDS011;59918;51.280;7.950;2023-08-06T10:59:49;0.20;;;0.20;;
72053;SDS011;59918;51.280;7.950;2023-08-06T11:02:14;0.40;;;0.40;;
72053;SDS011;59918;51.280;7.950;2023-08-06T11:04:40;0.10;;;0.10;;
72053;SDS011;59918;51.280;7.950;2023-08-06T11:07:06;0.80;;;0.10;;
72053;SDS011;59918;51.280;7.950;2023-08-06T11:09:32;0.20;;;0.20;;
72053;SDS011;59918;51.280;7.950;2023-08-06T11:11:57;1.35;;;0.50;;
72053;SDS011;59918;51.280;7.950;2023-08-06T11:14:22;0.10;;;0.10;;
72053;SDS011;59918;51.280;7.950;2023-08-06T11:16:48;0.20;;;0.10;;
72053;SDS011;59918;51.280;7.950;2023-08-06T11:19:13;0.20;;;0.20;;
72053;SDS011;59918;51.280;7.950;2023-08-06T11:21:39;0.28;;;0.20;;
72053;SDS011;59918;51.280;7.950;2023-08-06T11:24:04;0.20;;;0.20;;
72053;SDS011;59918;51.280;7.950;2023-08-06T11:26:29;0.30;;;0.22;;
72053;SDS011;59918;51.280;7.950;2023-08-06T11:28:55;0.32;;;0.20;;
72053;SDS011;59918;51.280;7.950;2023-08-06T11:31:20;0.20;;;0.20;;
72053;SDS011;59918;51.280;7.950;2023-08-06T11:33:46;0.40;;;0.40;;
72053;SDS011;59918;51.280;7.950;2023-08-06T11:36:11;1.27;;;0.60;;
72053;SDS011;59918;51.280;7.950;2023-08-06T11:38:37;0.45;;;0.45;;
72053;SDS011;59918;51.280;7.950;2023-08-06T11:41:02;0.30;;;0.30;;
72053;SDS011;59918;51.280;7.950;2023-08-06T11:43:29;1.55;;;0.50;;
72053;SDS011;59918;51.280;7.950;2023-08-06T11:45:56;0.35;;;0.35;;
72053;SDS011;59918;51.280;7.950;2023-08-06T11:48:21;0.52;;;0.52;;
72053;SDS011;59918;51.280;7.950;2023-08-06T11:50:46;1.20;;;0.38;;
72053;SDS011;59918;51.280;7.950;2023-08-06T11:53:12;0.32;;;0.30;;
72053;SDS011;59918;51.280;7.950;2023-08-06T11:55:38;0.55;;;0.55;;
72053;SDS011;59918;51.280;7.950;2023-08-06T11:58:04;0.43;;;0.40;;
72053;SDS011;59918;51.280;7.950;2023-08-06T12:00:29;1.95;;;0.57;;
72053;SDS011;59918;51.280;7.950;2023-08-06T12:02:55;0.60;;;0.60;;
72053;SDS011;59918;51.280;7.950;2023-08-06T12:05:21;0.90;;;0.60;;
72053;SDS011;59918;51.280;7.950;2023-08-06T12:07:57;2.22;;;1.13;;
72053;SDS011;59918;51.280;7.950;2023-08-06T12:10:24;1.10;;;1.00;;
72053;SDS011;59918;51.280;7.950;2023-08-06T12:12:51;1.50;;;1.10;;
72053;SDS011;59918;51.280;7.950;2023-08-06T12:15:16;0.93;;;0.88;;
72053;SDS011;59918;51.280;7.950;2023-08-06T12:17:41;1.25;;;0.80;;
72053;SDS011;59918;51.280;7.950;2023-08-06T12:20:09;1.27;;;0.60;;
72053;SDS011;59918;51.280;7.950;2023-08-06T12:22:35;0.70;;;0.50;;
72053;SDS011;59918;51.280;7.950;2023-08-06T12:25:01;0.55;;;0.50;;
72053;SDS011;59918;51.280;7.950;2023-08-06T12:27:28;1.00;;;0.75;;
72053;SDS011;59918;51.280;7.950;2023-08-06T12:29:53;1.00;;;0.57;;
72053;SDS011;59918;51.280;7.950;2023-08-06T12:32:18;0.88;;;0.63;;
72053;SDS011;59918;51.280;7.950;2023-08-06T12:34:44;0.90;;;0.65;;
72053;SDS011;59918;51.280;7.950;2023-08-06T12:37:09;0.82;;;0.50;;
72053;SDS011;59918;51.280;7.950;2023-08-06T12:39:35;1.05;;;0.90;;
72053;SDS011;59918;51.280;7.950;2023-08-06T12:42:02;1.77;;;0.75;;
72053;SDS011;59918;51.280;7.950;2023-08-06T12:44:28;1.65;;;0.50;;
72053;SDS011;59918;51.280;7.950;2023-08-06T12:46:54;0.43;;;0.43;;
72053;SDS011;59918;51.280;7.950;2023-08-06T12:49:19;1.23;;;0.47;;
72053;SDS011;59918;51.280;7.950;2023-08-06T12:51:45;0.75;;;0.50;;
72053;SDS011;59918;51.280;7.950;2023-08-06T12:54:11;0.82;;;0.52;;
72053;SDS011;59918;51.280;7.950;2023-08-06T12:56:36;0.80;;;0.53;;
72053;SDS011;59918;51.280;7.950;2023-08-06T12:59:01;2.13;;;0.80;;
72053;SDS011;59918;51.280;7.950;2023-08-06T13:01:26;8.60;;;2.33;;
72053;SDS011;59918;51.280;7.950;2023-08-06T13:03:52;5.15;;;2.10;;
72053;SDS011;59918;51.280;7.950;2023-08-06T13:06:17;2.45;;;2.25;;
72053;SDS011;59918;51.280;7.950;2023-08-06T13:08:42;2.25;;;1.92;;
72053;SDS011;59918;51.280;7.950;2023-08-06T13:11:07;1.75;;;1.65;;
72053;SDS011;59918;51.280;7.950;2023-08-06T13:13:33;3.58;;;2.25;;
72053;SDS011;59918;51.280;7.950;2023-08-06T13:15:58;4.80;;;2.40;;
72053;SDS011;59918;51.280;7.950;2023-08-06T13:18:23;3.63;;;2.08;;
72053;SDS011;59918;51.280;7.950;2023-08-06T13:20:49;3.25;;;2.63;;
72053;SDS011;59918;51.280;7.950;2023-08-06T13:23:14;2.50;;;2.30;;
72053;SDS011;59918;51.280;7.950;2023-08-06T13:25:39;2.22;;;2.10;;
72053;SDS011;59918;51.280;7.950;2023-08-06T13:28:04;1.92;;;1.73;;
72053;SDS011;59918;51.280;7.950;2023-08-06T13:30:30;2.03;;;1.90;;
72053;SDS011;59918;51.280;7.950;2023-08-06T13:32:55;1.65;;;1.55;;
72053;SDS011;59918;51.280;7.950;2023-08-06T13:35:20;1.63;;;1.33;;
72053;SDS011;59918;51.280;7.950;2023-08-06T13:37:46;4.70;;;1.88;;
72053;SDS011;59918;51.280;7.950;2023-08-06T13:40:11;5.03;;;1.70;;
72053;SDS011;59918;51.280;7.950;2023-08-06T13:42:36;2.03;;;1.75;;
72053;SDS011;59918;51.280;7.950;2023-08-06T13:45:01;5.22;;;1.73;;
72053;SDS011;59918;51.280;7.950;2023-08-06T13:47:27;2.55;;;1.77;;
72053;SDS011;59918;51.280;7.950;2023-08-06T13:49:52;1.88;;;1.77;;
72053;SDS011;59918;51.280;7.950;2023-08-06T13:52:17;4.70;;;1.60;;
72053;SDS011;59918;51.280;7.950;2023-08-06T13:54:43;1.67;;;1.58;;
72053;SDS011;59918;51.280;7.950;2023-08-06T13:57:08;3.83;;;1.83;;
72053;SDS011;59918;51.280;7.950;2023-08-06T13:59:33;1.88;;;1.40;;
72053;SDS011;59918;51.280;7.950;2023-08-06T14:01:58;1.10;;;1.00;;
72053;SDS011;59918;51.280;7.950;2023-08-06T14:04:24;1.08;;;1.08;;
72053;SDS011;59918;51.280;7.950;2023-08-06T14:06:49;0.90;;;0.90;;
72053;SDS011;59918;51.280;7.950;2023-08-06T14:09:14;1.40;;;1.33;;
72053;SDS011;59918;51.280;7.950;2023-08-06T14:11:39;0.90;;;0.90;;
72053;SDS011;59918;51.280;7.950;2023-08-06T14:14:05;0.90;;;0.90;;
72053;SDS011;59918;51.280;7.950;2023-08-06T14:16:30;0.98;;;0.95;;
72053;SDS011;59918;51.280;7.950;2023-08-06T14:18:55;1.17;;;1.13;;
72053;SDS011;59918;51.280;7.950;2023-08-06T14:21:20;0.80;;;0.80;;
72053;SDS011;59918;51.280;7.950;2023-08-06T14:23:46;0.65;;;0.65;;
72053;SDS011;59918;51.280;7.950;2023-08-06T14:26:11;0.80;;;0.70;;
72053;SDS011;59918;51.280;7.950;2023-08-06T14:28:36;0.85;;;0.85;;
72053;SDS011;59918;51.280;7.950;2023-08-06T14:31:01;0.77;;;0.77;;
72053;SDS011;59918;51.280;7.950;2023-08-06T14:33:27;1.20;;;1.20;;
72053;SDS011;59918;51.280;7.950;2023-08-06T14:35:52;1.20;;;1.20;;
72053;SDS011;59918;51.280;7.950;2023-08-06T14:38:17;1.23;;;1.23;;
72053;SDS011;59918;51.280;7.950;2023-08-06T14:40:43;1.30;;;1.20;;
72053;SDS011;59918;51.280;7.950;2023-08-06T14:43:08;1.10;;;1.10;;
72053;SDS011;59918;51.280;7.950;2023-08-06T14:45:37;1.17;;;1.00;;
72053;SDS011;59918;51.280;7.950;2023-08-06T14:48:03;1.33;;;1.23;;
72053;SDS011;59918;51.280;7.950;2023-08-06T14:50:28;1.00;;;1.00;;
72053;SDS011;59918;51.280;7.950;2023-08-06T14:52:53;1.23;;;1.10;;